Time;durP1;ratioP1;P1;durP2;ratioP2;P2;SDS_P1;SDS_P2;PMS_P1;PMS_P2;Temp;Humidity;BMP_temperature;BMP_pressure;BME280_temperature;BME280_humidity;BME280_pressure;Samples;Min_cycle;Max_cycle;Signal;HPM_P1;HPM_P2
2022/06/15 00:02:05;;;;;;;51.70;5.65;;;;;;;27.96;52.39;100569.02;1649241;87;21052;-75
2022/06/15 00:04:33;;;;;;;50.30;6.37;;;;;;;27.68;63.90;100587.27;1653119;85;21087;-79
2022/06/15 00:07:01;;;;;;;30.97;5.67;;;;;;;33.44;100.00;100607.77;1649956;86;21060;-77
2022/06/15 00:09:28;;;;;;;33.05;7.62;;;;;;;32.07;86.42;100637.97;1646303;87;21103;-75
2022/06/15 00:11:55;;;;;;;22.98;8.95;;;;;;;32.10;83.42;100650.08;1646840;86;21584;-72
2022/06/15 00:14:26;;;;;;;15.72;8.30;;;;;;;33.15;80.52;100634.00;1648494;86;21587;-72
2022/06/15 00:16:54;;;;;;;36.83;9.65;;;;;;;31.45;79.15;100605.39;1648689;86;21064;-71
2022/06/15 00:19:23;;;;;;;29.75;8.48;;;;;;;31.27;80.06;100587.32;1646424;87;21052;-72
2022/06/15 00:21:50;;;;;;;18.35;9.48;;;;;;;30.25;85.02;100586.75;1646448;87;21072;-71
2022/06/15 00:24:17;;;;;;;17.25;11.05;;;;;;;34.18;70.28;100612.82;1646628;87;21044;-71
2022/06/15 00:26:45;;;;;;;16.50;10.90;;;;;;;35.27;65.88;100655.78;1646480;86;21052;-70
2022/06/15 00:29:12;;;;;;;17.65;9.98;;;;;;;34.03;66.03;100673.78;1649685;85;21538;-71
2022/06/15 00:31:40;;;;;;;17.07;10.58;;;;;;;33.62;65.72;100666.59;1655423;86;21060;-71
2022/06/15 00:34:08;;;;;;;15.18;9.90;;;;;;;33.79;58.12;100676.74;1637524;87;21048;-70
2022/06/15 00:36:36;;;;;;;12.25;8.43;;;;;;;26.31;98.70;100634.25;1645958;87;21072;-71
2022/06/15 00:39:04;;;;;;;14.50;9.35;;;;;;;25.72;100.00;100592.22;1645753;86;21088;-71
2022/06/15 00:41:36;;;;;;;15.38;8.98;;;;;;;25.80;100.00;100567.16;1646438;87;21064;-70
2022/06/15 00:44:21;;;;;;;12.90;8.70;;;;;;;25.91;100.00;100549.73;1646375;87;21072;-71
2022/06/15 00:46:59;;;;;;;15.60;9.93;;;;;;;25.96;100.00;100531.58;1646299;87;21119;-70
2022/06/15 00:49:37;;;;;;;14.28;10.20;;;;;;;25.76;100.00;100515.25;1645621;87;21036;-73
2022/06/15 00:52:10;;;;;;;11.73;8.33;;;;;;;25.92;100.00;100494.66;1650364;86;21092;-71
2022/06/15 00:54:38;;;;;;;9.60;7.20;;;;;;;26.06;100.00;100504.20;1633713;86;21027;-72
2022/06/15 00:57:06;;;;;;;8.25;6.75;;;;;;;25.93;100.00;100513.47;1646364;87;21048;-73
2022/06/15 00:59:45;;;;;;;9.28;7.53;;;;;;;26.27;100.00;100527.38;1646841;87;21584;-75
2022/06/15 01:02:12;;;;;;;10.75;7.00;;;;;;;26.39;100.00;100541.86;1646840;87;21033;-72
2022/06/15 01:04:44;;;;;;;10.60;7.45;;;;;;;26.12;100.00;100565.52;1646342;86;21099;-73
2022/06/15 01:07:42;;;;;;;12.45;7.10;;;;;;;26.44;100.00;100572.54;1645895;87;21060;-71
2022/06/15 01:10:22;;;;;;;6.42;5.47;;;;;;;26.24;100.00;100587.92;1649003;86;21552;-72
2022/06/15 01:13:31;;;;;;;5.50;4.80;;;;;;;25.46;100.00;100601.08;1649481;86;21185;-71
2022/06/15 01:16:19;;;;;;;6.60;4.92;;;;;;;24.88;100.00;100609.77;1654888;86;21095;-73
2022/06/15 01:19:10;;;;;;;6.15;4.78;;;;;;;25.27;100.00;100603.52;1646564;87;21088;-71
2022/06/15 01:21:48;;;;;;;6.95;4.70;;;;;;;25.11;100.00;100612.67;1644719;87;21080;-74
2022/06/15 01:24:59;;;;;;;6.15;4.87;;;;;;;24.52;100.00;100604.19;1653137;86;21493;-73
2022/06/15 01:28:13;;;;;;;7.40;5.62;;;;;;;24.93;100.00;100598.29;1648762;86;21531;-73
2022/06/15 01:30:55;;;;;;;7.40;5.95;;;;;;;25.05;100.00;100590.92;1645673;86;21056;-72
2022/06/15 01:33:59;;;;;;;8.95;6.10;;;;;;;25.06;100.00;100592.56;1651106;86;21095;-73
2022/06/15 01:36:51;;;;;;;8.85;6.37;;;;;;;25.02;100.00;100583.33;1647836;86;21513;-72
2022/06/15 01:39:26;;;;;;;8.75;6.72;;;;;;;25.25;100.00;100590.19;1617005;86;21111;-73
2022/06/15 01:42:25;;;;;;;9.18;6.25;;;;;;;25.18;100.00;100588.64;1637877;86;21013;-72
2022/06/15 01:45:02;;;;;;;6.85;6.15;;;;;;;25.53;100.00;100592.05;1649150;86;21501;-72
2022/06/15 01:47:32;;;;;;;7.78;5.90;;;;;;;24.90;100.00;100595.48;1646207;87;21100;-72
2022/06/15 01:50:11;;;;;;;9.00;5.90;;;;;;;25.24;100.00;100593.80;1645502;87;21540;-72
2022/06/15 01:52:47;;;;;;;7.08;5.80;;;;;;;25.13;100.00;100595.72;1648084;86;21563;-72
2022/06/15 01:55:44;;;;;;;6.87;5.37;;;;;;;25.30;100.00;100597.92;1656156;86;21099;-71
2022/06/15 01:58:15;;;;;;;6.62;5.53;;;;;;;25.32;100.00;100606.98;1616417;88;21107;-72
2022/06/15 02:00:49;;;;;;;8.78;5.90;;;;;;;25.41;100.00;100606.03;1607298;88;21144;-72
2022/06/15 02:03:37;;;;;;;7.83;5.80;;;;;;;25.64;100.00;100609.35;1633625;86;21488;-71
2022/06/15 02:06:19;;;;;;;6.45;5.58;;;;;;;25.37;100.00;100613.93;1645215;87;21572;-72
2022/06/15 02:09:22;;;;;;;6.87;5.87;;;;;;;25.22;100.00;100611.58;1646336;87;21064;-71
2022/06/15 02:11:54;;;;;;;10.35;6.60;;;;;;;25.52;100.00;100614.11;1651613;87;21588;-70
2022/06/15 02:14:33;;;;;;;10.48;6.85;;;;;;;25.27;100.00;100618.02;1656919;86;21547;-71
2022/06/15 02:17:17;;;;;;;9.15;7.12;;;;;;;25.45;100.00;100622.35;1646995;86;21084;-71
2022/06/15 02:19:51;;;;;;;11.48;7.15;;;;;;;25.69;100.00;100621.53;1648956;86;21570;-71
2022/06/15 02:22:24;;;;;;;9.63;7.83;;;;;;;25.96;100.00;100623.08;1640050;87;21104;-71
2022/06/15 02:24:55;;;;;;;11.78;8.08;;;;;;;26.17;100.00;100620.73;1650544;87;21064;-71
2022/06/15 02:27:26;;;;;;;13.80;8.33;;;;;;;26.20;100.00;100627.52;1625640;87;21089;-70
2022/06/15 02:29:59;;;;;;;10.05;8.58;;;;;;;26.05;100.00;100623.38;1650865;86;21048;-70
2022/06/15 02:32:28;;;;;;;8.90;8.00;;;;;;;26.00;100.00;100621.75;1646954;86;21564;-70
2022/06/15 02:34:57;;;;;;;10.08;8.00;;;;;;;25.89;100.00;100620.72;1648660;86;21028;-70
2022/06/15 02:37:24;;;;;;;11.15;8.63;;;;;;;26.18;100.00;100623.72;1645665;87;21060;-69
2022/06/15 02:39:51;;;;;;;9.60;8.58;;;;;;;26.15;100.00;100625.35;1646406;86;21021;-70
2022/06/15 02:42:36;;;;;;;11.18;8.83;;;;;;;26.51;100.00;100622.33;1650155;86;21021;-70
2022/06/15 02:45:11;;;;;;;13.25;9.00;;;;;;;26.46;100.00;100618.54;1646182;87;21044;-70
2022/06/15 02:47:42;;;;;;;12.60;9.93;;;;;;;26.49;100.00;100626.95;1647116;86;21150;-70
2022/06/15 02:50:16;;;;;;;11.50;9.23;;;;;;;26.48;100.00;100625.32;1648881;87;21484;-70
2022/06/15 02:52:48;;;;;;;10.73;9.63;;;;;;;26.73;100.00;100618.67;1646817;87;21047;-70
2022/06/15 02:55:19;;;;;;;11.00;9.65;;;;;;;26.65;100.00;100617.38;1646073;87;21024;-70
2022/06/15 02:57:55;;;;;;;11.60;9.28;;;;;;;26.51;100.00;100626.29;1656293;86;21024;-70
2022/06/15 03:00:24;;;;;;;11.43;9.40;;;;;;;26.39;100.00;100622.36;1651371;86;21048;-70
2022/06/15 03:02:52;;;;;;;13.93;9.75;;;;;;;26.37;100.00;100621.20;1646721;86;21112;-70
2022/06/15 03:05:20;;;;;;;11.45;9.33;;;;;;;26.36;100.00;100624.03;1646443;86;21627;-70
2022/06/15 03:07:49;;;;;;;10.25;9.15;;;;;;;26.16;100.00;100616.96;1646526;86;21072;-70
2022/06/15 03:10:17;;;;;;;11.18;9.98;;;;;;;26.50;100.00;100625.12;1648659;86;21222;-70
2022/06/15 03:12:48;;;;;;;11.90;8.25;;;;;;;26.43;100.00;100624.98;1646162;87;21084;-70
2022/06/15 03:15:17;;;;;;;12.23;8.95;;;;;;;25.86;100.00;100627.66;1648341;86;21514;-71
2022/06/15 03:17:46;;;;;;;11.38;8.50;;;;;;;25.88;100.00;100621.22;1646927;87;21067;-70
2022/06/15 03:20:16;;;;;;;11.60;8.98;;;;;;;26.11;100.00;100628.50;1645461;87;21091;-69
2022/06/15 03:22:45;;;;;;;11.65;8.03;;;;;;;26.10;100.00;100625.05;1645937;87;21071;-70
2022/06/15 03:25:18;;;;;;;9.25;7.37;;;;;;;26.22;100.00;100631.28;1644829;86;21524;-69
2022/06/15 03:27:46;;;;;;;7.67;6.92;;;;;;;26.01;100.00;100640.53;1627100;87;21466;-70
2022/06/15 03:30:14;;;;;;;8.33;6.75;;;;;;;26.50;100.00;100630.41;1645261;87;21086;-70
2022/06/15 03:32:47;;;;;;;8.68;6.72;;;;;;;26.71;100.00;100632.55;1653215;86;21084;-70
2022/06/15 03:35:16;;;;;;;8.98;5.97;;;;;;;26.36;100.00;100641.19;1650213;86;21099;-70
2022/06/15 03:37:45;;;;;;;6.55;5.80;;;;;;;26.30;100.00;100641.35;1661070;85;21024;-70
2022/06/15 03:40:13;;;;;;;6.05;5.37;;;;;;;26.50;100.00;100640.50;1650209;86;21048;-71
2022/06/15 03:42:44;;;;;;;8.58;5.50;;;;;;;26.15;100.00;100641.69;1646362;87;21541;-70
2022/06/15 03:45:13;;;;;;;5.60;4.97;;;;;;;26.02;100.00;100645.34;1649846;86;21559;-69
2022/06/15 03:47:41;;;;;;;5.10;4.50;;;;;;;25.83;100.00;100641.16;1646450;86;21073;-70
2022/06/15 03:50:09;;;;;;;7.60;4.80;;;;;;;25.94;100.00;100648.80;1646563;86;21076;-70
2022/06/15 03:52:37;;;;;;;5.97;5.03;;;;;;;25.78;100.00;100646.43;1646515;87;21076;-69
2022/06/15 03:55:08;;;;;;;5.00;4.55;;;;;;;25.80;100.00;100654.19;1652594;86;21028;-71
2022/06/15 03:57:36;;;;;;;4.67;4.12;;;;;;;25.62;100.00;100660.91;1652372;86;21055;-70
2022/06/15 04:00:11;;;;;;;5.33;4.47;;;;;;;25.29;100.00;100670.56;1653412;85;21544;-70
2022/06/15 04:02:53;;;;;;;5.62;4.00;;;;;;;25.58;100.00;100667.00;1648486;87;21567;-70
2022/06/15 04:05:26;;;;;;;8.60;4.72;;;;;;;25.30;100.00;100678.28;1646985;86;21096;-70
2022/06/15 04:10:42;;;;;;;6.62;4.90;;;;;;;25.63;100.00;100678.39;1646676;86;21496;-70
2022/06/15 04:13:10;;;;;;;6.40;4.22;;;;;;;25.64;100.00;100685.80;1646485;86;21560;-70
2022/06/15 04:15:40;;;;;;;4.72;4.33;;;;;;;24.92;100.00;100681.73;1646749;87;21020;-69
2022/06/15 04:18:08;;;;;;;4.87;4.12;;;;;;;25.39;100.00;100691.02;1653210;86;21064;-70
2022/06/15 04:20:41;;;;;;;6.10;4.15;;;;;;;25.52;100.00;100691.86;1652323;86;21481;-70
2022/06/15 04:23:14;;;;;;;6.58;4.53;;;;;;;24.95;100.00;100689.81;1653236;86;21532;-70
2022/06/15 04:25:47;;;;;;;8.05;4.70;;;;;;;25.21;100.00;100693.75;1629303;87;21036;-70
2022/06/15 04:28:16;;;;;;;7.15;4.95;;;;;;;25.57;100.00;100697.00;1650782;87;21044;-70
2022/06/15 04:30:48;;;;;;;10.40;4.40;;;;;;;25.39;100.00;100695.78;1646582;86;21552;-70
2022/06/15 04:33:17;;;;;;;8.03;5.22;;;;;;;25.39;100.00;100695.78;1653522;87;21580;-69
2022/06/15 04:35:45;;;;;;;9.90;5.47;;;;;;;25.49;100.00;100701.42;1650513;86;21024;-70
2022/06/15 04:38:14;;;;;;;9.68;5.60;;;;;;;25.12;100.00;100703.41;1646305;87;21596;-70
2022/06/15 04:40:45;;;;;;;7.03;5.08;;;;;;;25.74;100.00;100694.39;1645596;86;21548;-70
2022/06/15 04:43:13;;;;;;;9.10;5.05;;;;;;;25.09;98.66;100700.25;1629633;87;21079;-70
2022/06/15 04:45:40;;;;;;;8.03;4.72;;;;;;;24.65;97.37;100705.09;1647428;86;21101;-70
2022/06/15 04:48:10;;;;;;;10.25;4.90;;;;;;;24.69;95.68;100705.62;1650240;86;21060;-70
2022/06/15 04:50:39;;;;;;;7.60;4.83;;;;;;;24.97;95.03;100711.55;1646123;87;21089;-69
2022/06/15 04:53:08;;;;;;;8.70;5.35;;;;;;;24.95;93.60;100716.14;1653460;86;21503;-69
2022/06/15 04:55:37;;;;;;;7.03;4.60;;;;;;;25.09;95.57;100707.66;1653036;87;21615;-70
2022/06/15 04:58:05;;;;;;;6.53;4.65;;;;;;;25.12;92.11;100716.58;1646628;86;21021;-69
2022/06/15 05:00:37;;;;;;;9.63;4.78;;;;;;;25.27;92.11;100718.64;1648478;86;21080;-70
2022/06/15 05:03:05;;;;;;;6.40;4.45;;;;;;;25.02;91.15;100718.97;1649347;86;21028;-70
2022/06/15 05:05:33;;;;;;;8.68;5.00;;;;;;;25.18;92.01;100715.09;1646319;86;21093;-71
2022/06/15 05:08:02;;;;;;;5.65;4.67;;;;;;;25.46;90.51;100720.18;1628327;87;21520;-70
2022/06/15 05:10:30;;;;;;;7.08;4.15;;;;;;;26.42;92.83;100719.70;1649257;86;21543;-70
2022/06/15 05:12:58;;;;;;;10.55;4.50;;;;;;;25.86;86.71;100721.28;1646391;86;21057;-70
2022/06/15 05:15:27;;;;;;;7.87;5.22;;;;;;;25.77;87.47;100723.05;1646567;86;21570;-70
2022/06/15 05:18:01;;;;;;;5.97;4.80;;;;;;;26.48;90.79;100727.42;1645472;86;21611;-71
2022/06/15 05:20:30;;;;;;;7.62;4.70;;;;;;;26.50;87.25;100723.66;1650412;86;21520;-70
2022/06/15 05:22:58;;;;;;;9.08;4.97;;;;;;;26.91;87.28;100728.06;1646244;86;21591;-70
2022/06/15 05:25:27;;;;;;;6.30;4.35;;;;;;;26.50;81.96;100728.93;1649425;87;21055;-70
2022/06/15 05:27:56;;;;;;;8.10;5.37;;;;;;;26.62;80.00;100727.28;1651812;87;21056;-70
2022/06/15 05:30:23;;;;;;;8.38;5.00;;;;;;;26.62;76.87;100724.14;1627274;87;21092;-70
2022/06/15 05:32:51;;;;;;;7.08;4.15;;;;;;;27.13;75.42;100725.16;1647831;87;21099;-71
2022/06/15 05:35:19;;;;;;;4.70;4.17;;;;;;;27.47;73.45;100728.03;1632244;86;21071;-71
2022/06/15 05:37:47;;;;;;;5.20;3.90;;;;;;;27.78;70.64;100734.16;1651253;87;21084;-71
2022/06/15 05:40:15;;;;;;;3.95;3.50;;;;;;;27.40;69.86;100732.39;1646103;86;21535;-71
2022/06/15 05:42:42;;;;;;;5.00;3.10;;;;;;;27.63;69.85;100731.91;1647903;86;21072;-70
2022/06/15 05:45:10;;;;;;;3.83;3.20;;;;;;;27.13;67.65;100733.94;1646301;87;21620;-69
2022/06/15 05:47:38;;;;;;;3.70;3.00;;;;;;;27.18;67.10;100747.95;1628602;86;21056;-70
2022/06/15 05:50:07;;;;;;;6.22;3.20;;;;;;;27.00;66.62;100731.50;1650250;86;21040;-71
2022/06/15 05:52:43;;;;;;;4.47;3.62;;;;;;;27.12;66.05;100736.23;1651616;87;21056;-70
2022/06/15 05:55:10;;;;;;;4.28;3.02;;;;;;;27.14;66.09;100734.75;1646548;86;21017;-70
2022/06/15 05:57:38;;;;;;;5.85;3.62;;;;;;;27.21;65.97;100732.25;1646409;87;21516;-71
2022/06/15 06:00:09;;;;;;;6.58;3.50;;;;;;;27.69;67.95;100730.41;1650547;86;21104;-71
2022/06/15 06:02:43;;;;;;;4.85;3.62;;;;;;;27.91;63.47;100736.75;1645907;87;22246;-69
2022/06/15 06:05:11;;;;;;;5.25;3.52;;;;;;;27.85;62.88;100739.56;1646996;86;21084;-70
2022/06/15 06:07:40;;;;;;;5.42;3.10;;;;;;;28.44;61.73;100733.67;1651580;86;21603;-70
2022/06/15 06:10:09;;;;;;;5.62;2.95;;;;;;;27.99;61.85;100736.69;1648758;86;21060;-70
2022/06/15 06:12:37;;;;;;;4.85;3.20;;;;;;;28.00;61.01;100746.26;1648351;86;21555;-70
2022/06/15 06:15:07;;;;;;;4.33;3.08;;;;;;;27.79;59.89;100752.16;1654725;86;21048;-70
2022/06/15 06:17:34;;;;;;;5.78;3.20;;;;;;;27.75;61.17;100754.33;1647736;86;21041;-70
2022/06/15 06:20:02;;;;;;;4.10;3.02;;;;;;;28.25;61.50;100746.11;1646538;87;21123;-70
2022/06/15 06:22:30;;;;;;;4.97;3.20;;;;;;;28.49;57.60;100756.48;1647507;86;21068;-70
2022/06/15 06:24:57;;;;;;;7.40;3.22;;;;;;;28.55;57.76;100765.58;1646476;86;21028;-70
2022/06/15 06:27:24;;;;;;;3.67;3.05;;;;;;;28.10;57.71;100758.79;1645937;86;21588;-69
2022/06/15 06:29:51;;;;;;;4.87;3.22;;;;;;;28.77;56.91;100763.85;1646250;86;21064;-70
2022/06/15 06:32:20;;;;;;;3.92;3.15;;;;;;;29.10;56.54;100766.18;1648224;86;21131;-70
2022/06/15 06:34:49;;;;;;;4.30;3.00;;;;;;;28.74;56.69;100778.80;1646508;86;21072;-70
2022/06/15 06:37:16;;;;;;;8.45;3.60;;;;;;;28.53;56.53;100782.14;1646284;87;21098;-69
2022/06/15 06:39:44;;;;;;;6.55;3.12;;;;;;;28.93;56.96;100782.27;1644845;87;21060;-70
2022/06/15 06:42:11;;;;;;;4.37;3.10;;;;;;;28.73;56.06;100777.14;1647431;86;21028;-70
2022/06/15 06:44:38;;;;;;;5.22;3.10;;;;;;;28.83;55.66;100786.97;1650439;86;21143;-70
2022/06/15 06:47:08;;;;;;;4.65;3.35;;;;;;;28.15;55.55;100785.53;1648807;86;21044;-70
2022/06/15 06:49:36;;;;;;;4.15;3.40;;;;;;;28.58;55.57;100782.42;1648295;87;21016;-70
2022/06/15 06:52:05;;;;;;;6.37;3.30;;;;;;;28.43;56.39;100778.39;1646327;87;21112;-70
2022/06/15 06:54:32;;;;;;;3.52;3.02;;;;;;;28.86;56.66;100780.52;1653989;86;21092;-70
2022/06/15 06:56:59;;;;;;;6.45;2.83;;;;;;;29.27;55.11;100776.93;1650630;86;21512;-69
2022/06/15 06:59:26;;;;;;;5.50;3.00;;;;;;;28.81;54.63;100783.69;1652357;87;21103;-70
2022/06/15 07:01:54;;;;;;;4.33;2.75;;;;;;;28.42;54.06;100783.34;1651081;87;21052;-70
2022/06/15 07:04:22;;;;;;;5.67;2.85;;;;;;;28.29;53.50;100792.40;1651260;85;21131;-70
2022/06/15 07:06:50;;;;;;;5.47;2.75;;;;;;;28.28;53.67;100776.99;1646566;86;21060;-70
2022/06/15 07:09:19;;;;;;;4.42;2.58;;;;;;;28.18;52.69;100775.08;1649753;86;21068;-69
2022/06/15 07:11:46;;;;;;;6.12;3.00;;;;;;;28.68;51.60;100782.17;1646148;87;21537;-70
2022/06/15 07:14:14;;;;;;;4.80;3.10;;;;;;;29.04;52.70;100785.47;1645257;87;21056;-70
2022/06/15 07:16:42;;;;;;;6.08;3.02;;;;;;;28.49;52.62;100790.91;1646582;87;21021;-70
2022/06/15 07:19:11;;;;;;;7.15;2.72;;;;;;;29.33;51.88;100782.01;1652050;86;21139;-70
2022/06/15 07:21:40;;;;;;;4.53;3.00;;;;;;;29.58;52.13;100793.63;1653122;85;21088;-71
2022/06/15 07:24:09;;;;;;;6.67;2.67;;;;;;;29.00;51.55;100811.50;1683783;84;21059;-71
2022/06/15 07:26:42;;;;;;;2.85;2.55;;;;;;;28.80;51.91;100788.67;1685200;84;21066;-71
2022/06/15 07:29:11;;;;;;;4.72;2.40;;;;;;;28.64;52.41;100788.33;1689309;84;21131;-70
2022/06/15 07:31:42;;;;;;;5.83;2.85;;;;;;;29.47;50.74;100793.10;1689946;84;21145;-71
2022/06/15 07:34:10;;;;;;;4.55;2.50;;;;;;;29.29;50.70;100790.02;1665311;84;21424;-70
2022/06/15 07:36:46;;;;;;;3.75;2.40;;;;;;;29.68;51.39;100784.36;1665159;85;21051;-71
2022/06/15 07:39:11;;;;;;;4.73;2.40;;;;;;;29.12;50.87;100790.20;1658998;83;21063;-71
2022/06/15 07:41:38;;;;;;;6.70;2.83;;;;;;;29.24;51.03;100782.62;1662101;83;21507;-71
2022/06/15 07:44:07;;;;;;;3.35;2.30;;;;;;;28.93;48.95;100804.79;1665522;84;21027;-70
2022/06/15 07:46:35;;;;;;;5.42;2.83;;;;;;;29.24;49.31;100788.40;1660474;83;21066;-70
2022/06/15 07:52:04;;;;;;;3.58;2.55;;;;;;;29.41;49.38;100785.88;1669709;83;21579;-71
2022/06/15 07:54:32;;;;;;;4.30;2.50;;;;;;;29.36;48.18;100789.61;1668165;84;21094;-69
2022/06/15 07:56:59;;;;;;;2.72;2.20;;;;;;;29.22;48.64;100785.11;1660157;85;21047;-70
2022/06/15 07:59:27;;;;;;;3.90;2.30;;;;;;;29.18;48.58;100781.18;1682766;83;21618;-71
2022/06/15 08:01:54;;;;;;;5.80;2.40;;;;;;;28.82;48.46;100792.48;1693747;84;21059;-71
2022/06/15 08:04:22;;;;;;;3.62;2.15;;;;;;;29.11;47.54;100787.22;1693497;83;21070;-70
2022/06/15 08:06:49;;;;;;;4.62;2.22;;;;;;;28.96;46.13;100795.64;1688484;83;21075;-70
2022/06/15 08:09:19;;;;;;;3.60;2.20;;;;;;;28.79;45.95;100785.69;1690763;84;21063;-69
2022/06/15 08:14:37;;;;;;;5.97;2.58;;;;;;;29.43;47.21;100783.06;1686604;84;21103;-70
2022/06/15 08:17:08;;;;;;;4.22;2.20;;;;;;;28.85;46.15;100792.10;1691921;83;21089;-71
2022/06/15 08:19:40;;;;;;;4.17;2.52;;;;;;;29.13;46.84;100781.23;1691932;83;21573;-69
2022/06/15 08:22:10;;;;;;;6.15;2.30;;;;;;;29.18;45.99;100785.16;1690067;83;21074;-71
2022/06/15 08:24:39;;;;;;;4.60;2.10;;;;;;;29.48;45.75;100788.13;1696697;83;21622;-69
2022/06/15 08:27:09;;;;;;;2.65;2.30;;;;;;;29.71;46.99;100793.84;1692037;83;21090;-69
2022/06/15 08:29:39;;;;;;;4.05;2.50;;;;;;;29.72;45.14;100788.83;1686955;83;21082;-69
2022/06/15 08:32:08;;;;;;;8.83;2.50;;;;;;;30.14;45.99;100783.26;1686848;84;21111;-70
2022/06/15 08:34:37;;;;;;;7.97;2.37;;;;;;;30.17;44.97;100794.81;1689515;84;21619;-70
2022/06/15 08:37:07;;;;;;;3.85;2.42;;;;;;;30.32;43.82;100790.81;1686969;84;21075;-71
2022/06/15 08:39:36;;;;;;;4.33;2.17;;;;;;;30.09;44.38;100789.63;1690268;84;21023;-70
2022/06/15 08:42:23;;;;;;;4.85;2.25;;;;;;;30.17;44.19;100793.48;1692036;84;21043;-70
2022/06/15 08:45:06;;;;;;;4.20;2.10;;;;;;;29.81;43.10;100796.20;1674741;84;21368;-70
2022/06/15 08:47:51;;;;;;;6.53;2.50;;;;;;;29.44;44.62;100794.81;1685169;84;21576;-70
2022/06/15 08:50:35;;;;;;;5.75;2.12;;;;;;;30.07;42.67;100798.28;1696388;84;21500;-70
2022/06/15 08:53:26;;;;;;;5.42;2.20;;;;;;;29.80;43.03;100786.58;1689367;84;21062;-70
2022/06/15 08:56:07;;;;;;;5.00;2.20;;;;;;;29.58;42.79;100789.66;1686115;84;21058;-71
2022/06/15 08:58:59;;;;;;;3.30;2.10;;;;;;;29.63;44.16;100784.62;1696287;84;21051;-70
2022/06/15 09:01:47;;;;;;;7.72;2.10;;;;;;;29.99;43.60;100784.66;1683239;85;21495;-71
2022/06/15 09:04:41;;;;;;;5.65;2.12;;;;;;;30.04;43.82;100773.45;1691937;83;21074;-69
2022/06/15 09:07:19;;;;;;;5.67;2.20;;;;;;;30.30;42.95;100787.02;1688594;83;21059;-70
2022/06/15 09:10:18;;;;;;;5.78;2.12;;;;;;;30.01;42.53;100793.73;1683162;85;21059;-70
2022/06/15 09:13:32;;;;;;;3.17;1.80;;;;;;;29.70;41.18;100788.16;1684454;84;21228;-70
2022/06/15 09:16:50;;;;;;;4.35;2.30;;;;;;;29.76;41.59;100778.16;1648091;86;21039;-70
2022/06/15 09:19:38;;;;;;;3.87;2.02;;;;;;;30.19;41.48;100785.34;1680904;84;21571;-70
2022/06/15 09:22:16;;;;;;;5.28;2.35;;;;;;;29.93;42.12;100782.23;1679577;84;21070;-71
2022/06/15 09:25:19;;;;;;;3.10;2.08;;;;;;;30.13;42.11;100792.22;1683348;84;21016;-71
2022/06/15 09:27:58;;;;;;;2.37;2.00;;;;;;;29.84;42.36;100788.66;1680294;85;21047;-70
2022/06/15 09:30:31;;;;;;;4.45;1.90;;;;;;;29.69;40.90;100787.35;1680392;84;21087;-70
2022/06/15 09:33:17;;;;;;;6.60;2.27;;;;;;;30.00;41.26;100788.12;1679830;85;21020;-71
2022/06/15 09:35:50;;;;;;;5.12;1.90;;;;;;;29.88;40.82;100778.50;1678430;85;21083;-70
2022/06/15 09:38:18;;;;;;;3.02;2.05;;;;;;;30.02;41.04;100786.91;1688043;83;21123;-70
2022/06/15 09:40:55;;;;;;;3.12;1.90;;;;;;;30.53;41.79;100785.97;1687440;84;21611;-71
2022/06/15 09:44:08;;;;;;;4.33;1.80;;;;;;;30.29;39.96;100782.70;1688342;84;21542;-70
2022/06/15 09:46:51;;;;;;;5.15;1.75;;;;;;;30.55;40.27;100782.61;1686907;84;21595;-70
2022/06/15 09:49:45;;;;;;;2.95;1.80;;;;;;;30.33;39.88;100798.59;1689956;84;21071;-70
2022/06/15 09:52:56;;;;;;;3.50;2.00;;;;;;;29.72;39.74;100789.64;1686511;84;21149;-70
2022/06/15 09:55:48;;;;;;;3.20;2.05;;;;;;;30.48;39.00;100783.09;1686623;84;21086;-70
2022/06/15 09:58:19;;;;;;;4.42;2.08;;;;;;;30.29;38.84;100784.02;1688536;84;21551;-70
2022/06/15 10:00:49;;;;;;;3.58;1.90;;;;;;;30.63;38.47;100781.14;1675294;83;21532;-70
2022/06/15 10:03:30;;;;;;;5.30;1.80;;;;;;;30.33;39.28;100788.45;1666814;83;21591;-70
2022/06/15 10:06:30;;;;;;;6.00;1.77;;;;;;;30.06;39.34;100790.02;1668842;84;21162;-70
2022/06/15 10:09:03;;;;;;;3.30;1.90;;;;;;;30.44;38.45;100779.98;1670493;83;21191;-70
2022/06/15 10:11:40;;;;;;;6.47;1.77;;;;;;;30.75;37.98;100780.92;1652319;83;21586;-71
2022/06/15 10:14:29;;;;;;;3.22;1.90;;;;;;;30.78;38.07;100783.72;1647389;84;21218;-69
2022/06/15 10:17:04;;;;;;;5.17;2.20;;;;;;;30.70;39.14;100775.39;1670369;84;21490;-70
2022/06/15 10:19:34;;;;;;;5.13;2.00;;;;;;;31.10;37.66;100782.81;1670405;83;21157;-70
2022/06/15 10:22:05;;;;;;;5.60;2.00;;;;;;;30.77;37.00;100768.78;1657897;83;21566;-70
2022/06/15 10:24:40;;;;;;;2.72;1.70;;;;;;;30.50;38.06;100777.08;1671046;84;21518;-70
2022/06/15 10:27:23;;;;;;;5.62;1.75;;;;;;;30.84;37.76;100777.63;1676951;84;21090;-70
2022/06/15 10:30:02;;;;;;;4.55;1.80;;;;;;;31.39;37.86;100764.94;1664986;84;21012;-69
2022/06/15 10:32:31;;;;;;;3.83;1.72;;;;;;;31.62;38.25;100768.13;1663342;84;21048;-71
2022/06/15 10:35:15;;;;;;;4.50;1.75;;;;;;;31.00;36.48;100771.70;1666932;83;21026;-70
2022/06/15 10:37:56;;;;;;;4.95;1.82;;;;;;;30.32;37.38;100761.09;1670153;84;21087;-71
2022/06/15 10:40:36;;;;;;;2.85;1.70;;;;;;;31.09;38.14;100754.08;1666868;84;21047;-70
2022/06/15 10:43:18;;;;;;;5.08;1.95;;;;;;;31.24;36.71;100753.11;1668862;85;21615;-70
2022/06/15 10:46:05;;;;;;;3.50;1.83;;;;;;;31.35;36.13;100757.37;1676326;84;21056;-70
2022/06/15 10:48:47;;;;;;;3.77;1.80;;;;;;;31.64;35.61;100749.31;1670292;83;21535;-69
2022/06/15 10:51:30;;;;;;;7.92;1.70;;;;;;;31.40;36.02;100751.95;1670091;84;21527;-70
2022/06/15 11:03:16;;;;;;;8.13;2.47;;;;;;;31.91;35.77;100748.33;1664784;85;21011;-70
2022/06/15 11:05:46;;;;;;;8.55;2.37;;;;;;;31.78;34.88;100751.50;1659216;84;21122;-70
2022/06/15 11:08:18;;;;;;;3.83;2.00;;;;;;;31.66;34.41;100750.74;1658965;85;21015;-71
2022/06/15 11:10:51;;;;;;;3.00;1.70;;;;;;;31.68;34.89;100747.89;1656348;85;21055;-71
2022/06/15 11:13:38;;;;;;;6.45;1.70;;;;;;;31.04;34.50;100776.42;1660868;85;21020;-71
2022/06/15 11:19:25;;;;;;;3.95;1.60;;;;;;;32.12;34.91;100740.72;1666844;85;21032;-71
2022/06/15 11:22:12;;;;;;;3.30;1.80;;;;;;;32.31;35.96;100731.08;1665948;85;21067;-71
2022/06/15 11:24:56;;;;;;;7.37;2.98;;;;;;;31.88;34.70;100736.77;1619744;86;21153;-71
2022/06/15 11:27:41;;;;;;;4.90;1.70;;;;;;;31.98;34.04;100727.58;1659450;85;21585;-71
2022/06/15 11:30:35;;;;;;;2.60;1.50;;;;;;;31.82;33.89;100732.25;1665783;84;21008;-70
2022/06/15 11:33:26;;;;;;;5.75;1.70;;;;;;;31.82;34.29;100732.77;1661463;85;20972;-71
2022/06/15 11:36:03;;;;;;;5.28;1.70;;;;;;;32.29;34.35;100716.33;1618023;88;21103;-70
2022/06/15 11:38:56;;;;;;;4.80;1.85;;;;;;;32.84;33.85;100721.39;1668778;84;21614;-70
2022/06/15 11:41:41;;;;;;;4.12;1.90;;;;;;;32.17;33.68;100715.31;1649913;86;21062;-71
2022/06/15 11:44:16;;;;;;;4.90;2.02;;;;;;;32.34;34.78;100721.84;1657246;84;21606;-70
2022/06/15 11:47:12;;;;;;;5.85;2.20;;;;;;;32.25;33.76;100722.58;1674790;84;21102;-70
2022/06/15 11:49:58;;;;;;;4.40;2.15;;;;;;;32.26;34.08;100714.91;1673683;83;21062;-70
2022/06/15 11:52:36;;;;;;;5.80;2.62;;;;;;;32.29;34.60;100715.00;1674042;83;21030;-70
2022/06/15 11:55:24;;;;;;;3.22;2.40;;;;;;;31.99;34.45;100726.53;1664465;83;21500;-70
2022/06/15 11:58:04;;;;;;;4.35;2.20;;;;;;;32.38;33.29;100720.41;1667877;84;21023;-71
2022/06/15 12:00:52;;;;;;;2.87;1.90;;;;;;;33.42;33.26;100724.59;1673991;83;21090;-71
2022/06/15 12:04:01;;;;;;;4.72;1.40;;;;;;;33.42;32.86;100720.06;1669259;84;21227;-71
2022/06/15 12:06:51;;;;;;;3.30;1.40;;;;;;;33.55;32.46;100711.16;1671907;84;21724;-71
2022/06/15 12:10:00;;;;;;;6.45;1.67;;;;;;;33.36;34.07;100722.25;1664448;83;21052;-72
2022/06/15 12:12:57;;;;;;;2.17;1.20;;;;;;;33.33;32.09;100719.50;1670192;83;20993;-71
2022/06/15 12:15:53;;;;;;;3.42;1.25;;;;;;;33.45;33.31;100725.48;1666229;84;21076;-70
2022/06/15 12:19:01;;;;;;;3.90;1.40;;;;;;;33.81;31.91;100730.22;1681222;84;21144;-71
2022/06/15 12:21:54;;;;;;;2.37;1.30;;;;;;;32.76;32.50;100726.43;1663943;83;20992;-71